sensor_id;sensor_type;location;lat;lon;timestamp;pressure;altitude;pressure_sealevel;temperature
10598;BMP180;5346;48.766;8.674;2023-03-31T00:01:21;93456.00;;;8.70
10598;BMP180;5346;48.766;8.674;2023-03-31T00:03:50;93475.00;;;8.70
10598;BMP180;5346;48.766;8.674;2023-03-31T00:06:23;93453.00;;;8.60
10598;BMP180;5346;48.766;8.674;2023-03-31T00:08:50;93473.00;;;8.50
10598;BMP180;5346;48.766;8.674;2023-03-31T00:11:27;93472.00;;;8.70
10598;BMP180;5346;48.766;8.674;2023-03-31T00:14:01;93467.00;;;8.70
10598;BMP180;5346;48.766;8.674;2023-03-31T00:16:37;93463.00;;;8.60
10598;BMP180;5346;48.766;8.674;2023-03-31T00:19:13;93436.00;;;8.70
10598;BMP180;5346;48.766;8.674;2023-03-31T00:21:53;93453.00;;;8.70
10598;BMP180;5346;48.766;8.674;2023-03-31T00:24:28;93447.00;;;8.80
10598;BMP180;5346;48.766;8.674;2023-03-31T00:27:03;93447.00;;;9.10
10598;BMP180;5346;48.766;8.674;2023-03-31T00:29:37;93430.00;;;9.20
10598;BMP180;5346;48.766;8.674;2023-03-31T00:32:13;93444.00;;;9.20
10598;BMP180;5346;48.766;8.674;2023-03-31T00:34:40;93438.00;;;8.90
10598;BMP180;5346;48.766;8.674;2023-03-31T00:37:14;93444.00;;;9.00
10598;BMP180;5346;48.766;8.674;2023-03-31T00:39:56;93432.00;;;8.90
10598;BMP180;5346;48.766;8.674;2023-03-31T00:42:29;93418.00;;;9.00
10598;BMP180;5346;48.766;8.674;2023-03-31T00:47:47;93423.00;;;9.00
10598;BMP180;5346;48.766;8.674;2023-03-31T00:50:28;93412.00;;;9.10
10598;BMP180;5346;48.766;8.674;2023-03-31T00:53:11;93423.00;;;9.20
10598;BMP180;5346;48.766;8.674;2023-03-31T00:55:58;93408.00;;;9.20
10598;BMP180;5346;48.766;8.674;2023-03-31T00:58:34;93393.00;;;9.10
10598;BMP180;5346;48.766;8.674;2023-03-31T01:01:20;93377.00;;;9.00
10598;BMP180;5346;48.766;8.674;2023-03-31T01:03:51;93390.00;;;9.10
10598;BMP180;5346;48.766;8.674;2023-03-31T01:06:25;93392.00;;;9.30
10598;BMP180;5346;48.766;8.674;2023-03-31T01:09:03;93365.00;;;9.30
10598;BMP180;5346;48.766;8.674;2023-03-31T01:11:39;93378.00;;;9.40
10598;BMP180;5346;48.766;8.674;2023-03-31T01:14:13;93369.00;;;9.40
10598;BMP180;5346;48.766;8.674;2023-03-31T01:16:47;93341.00;;;9.30
10598;BMP180;5346;48.766;8.674;2023-03-31T01:29:10;93372.00;;;9.00
10598;BMP180;5346;48.766;8.674;2023-03-31T01:42:08;93374.00;;;7.20
10598;BMP180;5346;48.766;8.674;2023-03-31T01:45:13;93367.00;;;7.00
10598;BMP180;5346;48.766;8.674;2023-03-31T01:47:57;93361.00;;;7.10
10598;BMP180;5346;48.766;8.674;2023-03-31T01:50:45;93327.00;;;7.00
10598;BMP180;5346;48.766;8.674;2023-03-31T01:53:51;93373.00;;;7.00
10598;BMP180;5346;48.766;8.674;2023-03-31T01:56:30;93352.00;;;6.90
10598;BMP180;5346;48.766;8.674;2023-03-31T01:59:17;93380.00;;;7.00
10598;BMP180;5346;48.766;8.674;2023-03-31T02:02:07;93363.00;;;7.10
10598;BMP180;5346;48.766;8.674;2023-03-31T02:04:54;93328.00;;;6.90
10598;BMP180;5346;48.766;8.674;2023-03-31T02:07:42;93343.00;;;7.00
10598;BMP180;5346;48.766;8.674;2023-03-31T02:10:18;93330.00;;;7.00
10598;BMP180;5346;48.766;8.674;2023-03-31T02:12:47;93321.00;;;7.10
10598;BMP180;5346;48.766;8.674;2023-03-31T02:15:28;93299.00;;;7.10
10598;BMP180;5346;48.766;8.674;2023-03-31T02:18:06;93286.00;;;7.00
10598;BMP180;5346;48.766;8.674;2023-03-31T02:20:40;93276.00;;;7.10
10598;BMP180;5346;48.766;8.674;2023-03-31T02:23:21;93292.00;;;7.00
10598;BMP180;5346;48.766;8.674;2023-03-31T02:25:59;93279.00;;;7.10
10598;BMP180;5346;48.766;8.674;2023-03-31T02:28:34;93225.00;;;6.90
10598;BMP180;5346;48.766;8.674;2023-03-31T02:34:00;93231.00;;;6.60
10598;BMP180;5346;48.766;8.674;2023-03-31T02:36:36;93163.00;;;6.90
10598;BMP180;5346;48.766;8.674;2023-03-31T02:39:15;93201.00;;;7.00
10598;BMP180;5346;48.766;8.674;2023-03-31T02:41:50;93221.00;;;7.00
10598;BMP180;5346;48.766;8.674;2023-03-31T02:44:25;93189.00;;;6.90
10598;BMP180;5346;48.766;8.674;2023-03-31T02:47:02;93209.00;;;6.90
10598;BMP180;5346;48.766;8.674;2023-03-31T02:49:51;93178.00;;;6.80
10598;BMP180;5346;48.766;8.674;2023-03-31T02:52:47;93163.00;;;6.80
10598;BMP180;5346;48.766;8.674;2023-03-31T03:01:55;93166.00;;;6.70
10598;BMP180;5346;48.766;8.674;2023-03-31T03:10:19;93089.00;;;6.40
10598;BMP180;5346;48.766;8.674;2023-03-31T03:13:17;93121.00;;;6.30
10598;BMP180;5346;48.766;8.674;2023-03-31T03:18:39;93073.00;;;6.20
10598;BMP180;5346;48.766;8.674;2023-03-31T03:21:06;93062.00;;;6.20
10598;BMP180;5346;48.766;8.674;2023-03-31T03:23:39;93089.00;;;6.20
10598;BMP180;5346;48.766;8.674;2023-03-31T03:26:06;93058.00;;;6.30
10598;BMP180;5346;48.766;8.674;2023-03-31T03:28:43;93039.00;;;6.20
10598;BMP180;5346;48.766;8.674;2023-03-31T03:31:10;93062.00;;;6.10
10598;BMP180;5346;48.766;8.674;2023-03-31T03:33:44;93057.00;;;6.00
10598;BMP180;5346;48.766;8.674;2023-03-31T03:36:25;93075.00;;;5.80
10598;BMP180;5346;48.766;8.674;2023-03-31T03:39:06;93066.00;;;5.70
10598;BMP180;5346;48.766;8.674;2023-03-31T03:41:40;93048.00;;;5.80
10598;BMP180;5346;48.766;8.674;2023-03-31T03:44:07;93013.00;;;5.80
10598;BMP180;5346;48.766;8.674;2023-03-31T03:46:48;93004.00;;;5.70
10598;BMP180;5346;48.766;8.674;2023-03-31T03:49:22;92985.00;;;5.70
10598;BMP180;5346;48.766;8.674;2023-03-31T03:51:49;93012.00;;;5.70
10598;BMP180;5346;48.766;8.674;2023-03-31T03:54:23;92985.00;;;5.80
10598;BMP180;5346;48.766;8.674;2023-03-31T03:56:50;92996.00;;;5.70
10598;BMP180;5346;48.766;8.674;2023-03-31T03:59:24;92975.00;;;5.80
10598;BMP180;5346;48.766;8.674;2023-03-31T04:01:58;92983.00;;;5.90
10598;BMP180;5346;48.766;8.674;2023-03-31T04:04:25;92992.00;;;6.00
10598;BMP180;5346;48.766;8.674;2023-03-31T04:07:00;92981.00;;;6.00
10598;BMP180;5346;48.766;8.674;2023-03-31T04:09:27;92997.00;;;6.10
10598;BMP180;5346;48.766;8.674;2023-03-31T04:12:01;92977.00;;;6.20
10598;BMP180;5346;48.766;8.674;2023-03-31T04:14:35;92971.00;;;6.10
10598;BMP180;5346;48.766;8.674;2023-03-31T04:17:09;92997.00;;;6.10
10598;BMP180;5346;48.766;8.674;2023-03-31T04:19:41;93008.00;;;6.40
10598;BMP180;5346;48.766;8.674;2023-03-31T04:22:16;92973.00;;;6.40
10598;BMP180;5346;48.766;8.674;2023-03-31T04:24:46;92998.00;;;6.30
10598;BMP180;5346;48.766;8.674;2023-03-31T04:27:25;92993.00;;;6.30
10598;BMP180;5346;48.766;8.674;2023-03-31T04:30:01;92981.00;;;6.50
10598;BMP180;5346;48.766;8.674;2023-03-31T04:32:34;92982.00;;;6.50
10598;BMP180;5346;48.766;8.674;2023-03-31T04:35:08;92966.00;;;6.40
10598;BMP180;5346;48.766;8.674;2023-03-31T04:37:43;92962.00;;;6.50
10598;BMP180;5346;48.766;8.674;2023-03-31T04:40:17;92975.00;;;6.50
10598;BMP180;5346;48.766;8.674;2023-03-31T04:42:50;92986.00;;;6.60
10598;BMP180;5346;48.766;8.674;2023-03-31T04:45:24;92961.00;;;6.60
10598;BMP180;5346;48.766;8.674;2023-03-31T04:47:58;92974.00;;;6.60
10598;BMP180;5346;48.766;8.674;2023-03-31T04:50:25;92954.00;;;6.70
10598;BMP180;5346;48.766;8.674;2023-03-31T04:52:59;92960.00;;;6.70
10598;BMP180;5346;48.766;8.674;2023-03-31T04:55:27;92961.00;;;6.70
10598;BMP180;5346;48.766;8.674;2023-03-31T04:58:01;92981.00;;;6.70
10598;BMP180;5346;48.766;8.674;2023-03-31T05:00:29;92981.00;;;6.70
10598;BMP180;5346;48.766;8.674;2023-03-31T05:02:58;93016.00;;;6.70
10598;BMP180;5346;48.766;8.674;2023-03-31T05:05:32;93010.00;;;6.70
10598;BMP180;5346;48.766;8.674;2023-03-31T05:08:06;93017.00;;;6.80
10598;BMP180;5346;48.766;8.674;2023-03-31T05:10:40;92958.00;;;6.70
10598;BMP180;5346;48.766;8.674;2023-03-31T05:13:11;92976.00;;;6.70
10598;BMP180;5346;48.766;8.674;2023-03-31T05:15:45;92997.00;;;6.80
10598;BMP180;5346;48.766;8.674;2023-03-31T05:18:13;92956.00;;;6.70
10598;BMP180;5346;48.766;8.674;2023-03-31T05:20:47;92963.00;;;6.70
10598;BMP180;5346;48.766;8.674;2023-03-31T05:23:22;92952.00;;;6.70
10598;BMP180;5346;48.766;8.674;2023-03-31T05:25:56;92942.00;;;6.80
10598;BMP180;5346;48.766;8.674;2023-03-31T05:28:30;92955.00;;;6.70
10598;BMP180;5346;48.766;8.674;2023-03-31T05:30:59;92942.00;;;6.80
10598;BMP180;5346;48.766;8.674;2023-03-31T05:33:34;92923.00;;;6.80
10598;BMP180;5346;48.766;8.674;2023-03-31T05:36:12;92935.00;;;6.80
10598;BMP180;5346;48.766;8.674;2023-03-31T05:38:46;92921.00;;;7.00
10598;BMP180;5346;48.766;8.674;2023-03-31T05:41:27;92884.00;;;7.00
10598;BMP180;5346;48.766;8.674;2023-03-31T05:44:02;92903.00;;;6.80
10598;BMP180;5346;48.766;8.674;2023-03-31T05:46:29;92886.00;;;6.90
10598;BMP180;5346;48.766;8.674;2023-03-31T05:49:03;92889.00;;;6.90
10598;BMP180;5346;48.766;8.674;2023-03-31T05:51:38;92891.00;;;7.00
10598;BMP180;5346;48.766;8.674;2023-03-31T05:54:33;92862.00;;;7.00
10598;BMP180;5346;48.766;8.674;2023-03-31T05:57:01;92872.00;;;7.00
10598;BMP180;5346;48.766;8.674;2023-03-31T05:59:36;92829.00;;;7.10
10598;BMP180;5346;48.766;8.674;2023-03-31T06:02:14;92861.00;;;7.10
10598;BMP180;5346;48.766;8.674;2023-03-31T06:04:50;92840.00;;;7.30
10598;BMP180;5346;48.766;8.674;2023-03-31T06:07:18;92859.00;;;7.30
10598;BMP180;5346;48.766;8.674;2023-03-31T06:09:52;92870.00;;;7.30
10598;BMP180;5346;48.766;8.674;2023-03-31T06:12:20;92845.00;;;7.10
10598;BMP180;5346;48.766;8.674;2023-03-31T06:14:54;92863.00;;;7.30
10598;BMP180;5346;48.766;8.674;2023-03-31T06:17:22;92873.00;;;7.10
10598;BMP180;5346;48.766;8.674;2023-03-31T06:19:55;92841.00;;;6.90
10598;BMP180;5346;48.766;8.674;2023-03-31T06:22:39;92854.00;;;7.00
10598;BMP180;5346;48.766;8.674;2023-03-31T06:25:07;92830.00;;;7.00
10598;BMP180;5346;48.766;8.674;2023-03-31T06:27:47;92836.00;;;7.00
10598;BMP180;5346;48.766;8.674;2023-03-31T06:30:22;92861.00;;;7.00
10598;BMP180;5346;48.766;8.674;2023-03-31T06:32:57;92871.00;;;7.10
10598;BMP180;5346;48.766;8.674;2023-03-31T06:35:24;92844.00;;;7.10
10598;BMP180;5346;48.766;8.674;2023-03-31T06:38:06;92864.00;;;7.20
10598;BMP180;5346;48.766;8.674;2023-03-31T06:40:46;92916.00;;;7.20
10598;BMP180;5346;48.766;8.674;2023-03-31T06:43:21;92869.00;;;7.30
10598;BMP180;5346;48.766;8.674;2023-03-31T06:45:49;92898.00;;;7.20
10598;BMP180;5346;48.766;8.674;2023-03-31T06:48:24;92914.00;;;7.20
10598;BMP180;5346;48.766;8.674;2023-03-31T06:50:53;92937.00;;;7.30
10598;BMP180;5346;48.766;8.674;2023-03-31T06:53:28;92888.00;;;7.20
10598;BMP180;5346;48.766;8.674;2023-03-31T06:55:57;92850.00;;;7.10
10598;BMP180;5346;48.766;8.674;2023-03-31T06:58:31;92864.00;;;7.00
10598;BMP180;5346;48.766;8.674;2023-03-31T07:01:03;92842.00;;;7.00
10598;BMP180;5346;48.766;8.674;2023-03-31T07:03:38;92839.00;;;7.00
10598;BMP180;5346;48.766;8.674;2023-03-31T07:06:06;92796.00;;;7.20
10598;BMP180;5346;48.766;8.674;2023-03-31T07:08:33;92813.00;;;7.10
10598;BMP180;5346;48.766;8.674;2023-03-31T07:11:11;92824.00;;;7.20
10598;BMP180;5346;48.766;8.674;2023-03-31T07:13:47;92838.00;;;7.10
10598;BMP180;5346;48.766;8.674;2023-03-31T07:16:20;92819.00;;;7.10
10598;BMP180;5346;48.766;8.674;2023-03-31T07:18:55;92811.00;;;7.30
10598;BMP180;5346;48.766;8.674;2023-03-31T07:21:25;92825.00;;;8.00
10598;BMP180;5346;48.766;8.674;2023-03-31T07:24:00;92811.00;;;8.50
10598;BMP180;5346;48.766;8.674;2023-03-31T07:26:27;92820.00;;;8.80
10598;BMP180;5346;48.766;8.674;2023-03-31T07:29:00;92812.00;;;8.90
10598;BMP180;5346;48.766;8.674;2023-03-31T07:31:28;92804.00;;;9.20
10598;BMP180;5346;48.766;8.674;2023-03-31T07:34:03;92818.00;;;9.20
10598;BMP180;5346;48.766;8.674;2023-03-31T07:36:38;92808.00;;;9.20
10598;BMP180;5346;48.766;8.674;2023-03-31T07:39:26;92789.00;;;9.30
10598;BMP180;5346;48.766;8.674;2023-03-31T07:41:53;92803.00;;;9.10
10598;BMP180;5346;48.766;8.674;2023-03-31T07:44:27;92800.00;;;8.90
10598;BMP180;5346;48.766;8.674;2023-03-31T07:46:55;92806.00;;;9.10
10598;BMP180;5346;48.766;8.674;2023-03-31T07:49:32;92792.00;;;9.10
10598;BMP180;5346;48.766;8.674;2023-03-31T07:52:01;92810.00;;;9.00
10598;BMP180;5346;48.766;8.674;2023-03-31T07:54:35;92784.00;;;9.20
10598;BMP180;5346;48.766;8.674;2023-03-31T07:57:03;92796.00;;;9.40
10598;BMP180;5346;48.766;8.674;2023-03-31T07:59:40;92815.00;;;9.40
10598;BMP180;5346;48.766;8.674;2023-03-31T08:02:16;92775.00;;;9.60
10598;BMP180;5346;48.766;8.674;2023-03-31T08:04:50;92809.00;;;9.60
10598;BMP180;5346;48.766;8.674;2023-03-31T08:07:17;92783.00;;;9.60
10598;BMP180;5346;48.766;8.674;2023-03-31T08:09:51;92798.00;;;10.10
10598;BMP180;5346;48.766;8.674;2023-03-31T08:12:19;92793.00;;;10.10
10598;BMP180;5346;48.766;8.674;2023-03-31T08:14:54;92801.00;;;10.20
10598;BMP180;5346;48.766;8.674;2023-03-31T08:17:22;92795.00;;;10.40
10598;BMP180;5346;48.766;8.674;2023-03-31T08:19:56;92789.00;;;10.60
10598;BMP180;5346;48.766;8.674;2023-03-31T08:22:33;92789.00;;;10.90
10598;BMP180;5346;48.766;8.674;2023-03-31T08:25:08;92788.00;;;11.10
10598;BMP180;5346;48.766;8.674;2023-03-31T08:27:39;92786.00;;;11.60
10598;BMP180;5346;48.766;8.674;2023-03-31T08:30:13;92801.00;;;11.40
10598;BMP180;5346;48.766;8.674;2023-03-31T08:32:48;92807.00;;;11.80
10598;BMP180;5346;48.766;8.674;2023-03-31T08:35:15;92800.00;;;11.70
10598;BMP180;5346;48.766;8.674;2023-03-31T08:37:56;92783.00;;;11.50
10598;BMP180;5346;48.766;8.674;2023-03-31T08:40:31;92804.00;;;11.60
10598;BMP180;5346;48.766;8.674;2023-03-31T08:43:15;92801.00;;;11.80
10598;BMP180;5346;48.766;8.674;2023-03-31T08:45:53;92783.00;;;11.40
10598;BMP180;5346;48.766;8.674;2023-03-31T08:48:37;92790.00;;;11.00
10598;BMP180;5346;48.766;8.674;2023-03-31T08:51:26;92802.00;;;11.10
10598;BMP180;5346;48.766;8.674;2023-03-31T08:54:20;92782.00;;;11.30
10598;BMP180;5346;48.766;8.674;2023-03-31T08:56:52;92772.00;;;12.10
10598;BMP180;5346;48.766;8.674;2023-03-31T08:59:30;92778.00;;;11.90
10598;BMP180;5346;48.766;8.674;2023-03-31T09:02:20;92805.00;;;11.30
10598;BMP180;5346;48.766;8.674;2023-03-31T09:05:17;92775.00;;;11.00
10598;BMP180;5346;48.766;8.674;2023-03-31T09:08:10;92789.00;;;11.90
10598;BMP180;5346;48.766;8.674;2023-03-31T09:11:05;92785.00;;;11.60
10598;BMP180;5346;48.766;8.674;2023-03-31T09:13:57;92773.00;;;11.40
10598;BMP180;5346;48.766;8.674;2023-03-31T09:17:06;92754.00;;;12.50
10598;BMP180;5346;48.766;8.674;2023-03-31T09:19:49;92747.00;;;12.30
10598;BMP180;5346;48.766;8.674;2023-03-31T09:22:31;92720.00;;;12.30
10598;BMP180;5346;48.766;8.674;2023-03-31T09:25:19;92734.00;;;12.80
10598;BMP180;5346;48.766;8.674;2023-03-31T09:27:57;92737.00;;;13.40
10598;BMP180;5346;48.766;8.674;2023-03-31T09:30:29;92736.00;;;13.00
10598;BMP180;5346;48.766;8.674;2023-03-31T09:33:17;92740.00;;;13.50
10598;BMP180;5346;48.766;8.674;2023-03-31T09:35:45;92737.00;;;13.10
10598;BMP180;5346;48.766;8.674;2023-03-31T09:38:20;92763.00;;;12.00
10598;BMP180;5346;48.766;8.674;2023-03-31T09:40:58;92736.00;;;11.70
10598;BMP180;5346;48.766;8.674;2023-03-31T09:43:33;92659.00;;;11.50
10598;BMP180;5346;48.766;8.674;2023-03-31T09:46:20;92684.00;;;10.90
10598;BMP180;5346;48.766;8.674;2023-03-31T09:49:13;92722.00;;;11.70
10598;BMP180;5346;48.766;8.674;2023-03-31T09:52:03;92698.00;;;11.30
10598;BMP180;5346;48.766;8.674;2023-03-31T09:54:49;92691.00;;;11.40
10598;BMP180;5346;48.766;8.674;2023-03-31T09:57:32;92696.00;;;11.00
10598;BMP180;5346;48.766;8.674;2023-03-31T10:00:20;92713.00;;;11.20
10598;BMP180;5346;48.766;8.674;2023-03-31T10:02:56;92693.00;;;11.70
10598;BMP180;5346;48.766;8.674;2023-03-31T10:05:39;92670.00;;;12.70
10598;BMP180;5346;48.766;8.674;2023-03-31T10:08:31;92683.00;;;13.10
10598;BMP180;5346;48.766;8.674;2023-03-31T10:11:11;92706.00;;;13.30
10598;BMP180;5346;48.766;8.674;2023-03-31T10:14:23;92730.00;;;12.10
10598;BMP180;5346;48.766;8.674;2023-03-31T10:17:02;92711.00;;;9.30
10598;BMP180;5346;48.766;8.674;2023-03-31T10:19:37;92703.00;;;8.70
10598;BMP180;5346;48.766;8.674;2023-03-31T10:22:29;92675.00;;;9.10
10598;BMP180;5346;48.766;8.674;2023-03-31T10:25:20;92696.00;;;9.50
10598;BMP180;5346;48.766;8.674;2023-03-31T10:27:56;92682.00;;;9.80
10598;BMP180;5346;48.766;8.674;2023-03-31T10:30:35;92677.00;;;10.40
10598;BMP180;5346;48.766;8.674;2023-03-31T10:33:17;92668.00;;;11.40
10598;BMP180;5346;48.766;8.674;2023-03-31T10:35:58;92667.00;;;12.30
10598;BMP180;5346;48.766;8.674;2023-03-31T10:38:42;92681.00;;;11.70
10598;BMP180;5346;48.766;8.674;2023-03-31T10:41:28;92697.00;;;10.70
10598;BMP180;5346;48.766;8.674;2023-03-31T10:44:03;92678.00;;;10.00
10598;BMP180;5346;48.766;8.674;2023-03-31T10:46:47;92729.00;;;9.80
10598;BMP180;5346;48.766;8.674;2023-03-31T10:49:26;92747.00;;;9.70
10598;BMP180;5346;48.766;8.674;2023-03-31T10:52:01;92755.00;;;8.70
10598;BMP180;5346;48.766;8.674;2023-03-31T10:54:28;92782.00;;;7.40
10598;BMP180;5346;48.766;8.674;2023-03-31T10:57:04;92783.00;;;6.80
10598;BMP180;5346;48.766;8.674;2023-03-31T11:05:48;92820.00;;;5.70
10598;BMP180;5346;48.766;8.674;2023-03-31T11:11:59;92819.00;;;5.30
10598;BMP180;5346;48.766;8.674;2023-03-31T11:15:24;92817.00;;;5.40
10598;BMP180;5346;48.766;8.674;2023-03-31T11:18:16;92735.00;;;5.50
10598;BMP180;5346;48.766;8.674;2023-03-31T11:34:33;92731.00;;;6.70
10598;BMP180;5346;48.766;8.674;2023-03-31T11:43:58;92714.00;;;9.70
10598;BMP180;5346;48.766;8.674;2023-03-31T11:46:51;92692.00;;;9.90
10598;BMP180;5346;48.766;8.674;2023-03-31T11:49:36;92697.00;;;10.10
10598;BMP180;5346;48.766;8.674;2023-03-31T11:52:18;92674.00;;;9.90
10598;BMP180;5346;48.766;8.674;2023-03-31T11:55:11;92671.00;;;10.30
10598;BMP180;5346;48.766;8.674;2023-03-31T11:58:24;92678.00;;;10.60
10598;BMP180;5346;48.766;8.674;2023-03-31T12:01:17;92674.00;;;10.10
10598;BMP180;5346;48.766;8.674;2023-03-31T12:06:48;92640.00;;;10.10
10598;BMP180;5346;48.766;8.674;2023-03-31T12:10:18;92686.00;;;9.40
10598;BMP180;5346;48.766;8.674;2023-03-31T12:16:21;92672.00;;;10.10
10598;BMP180;5346;48.766;8.674;2023-03-31T12:19:27;92666.00;;;9.70
10598;BMP180;5346;48.766;8.674;2023-03-31T12:24:36;92654.00;;;11.30
10598;BMP180;5346;48.766;8.674;2023-03-31T12:27:23;92678.00;;;10.50
10598;BMP180;5346;48.766;8.674;2023-03-31T12:30:03;92664.00;;;9.70
10598;BMP180;5346;48.766;8.674;2023-03-31T12:32:39;92640.00;;;9.00
10598;BMP180;5346;48.766;8.674;2023-03-31T12:41:09;92645.00;;;9.50
10598;BMP180;5346;48.766;8.674;2023-03-31T12:44:26;92664.00;;;8.90
10598;BMP180;5346;48.766;8.674;2023-03-31T12:47:52;92679.00;;;8.30
10598;BMP180;5346;48.766;8.674;2023-03-31T12:51:15;92694.00;;;7.90
10598;BMP180;5346;48.766;8.674;2023-03-31T12:54:17;92715.00;;;7.30
10598;BMP180;5346;48.766;8.674;2023-03-31T12:57:15;92713.00;;;6.80
10598;BMP180;5346;48.766;8.674;2023-03-31T13:02:39;92728.00;;;6.00
10598;BMP180;5346;48.766;8.674;2023-03-31T13:08:06;92684.00;;;6.00
10598;BMP180;5346;48.766;8.674;2023-03-31T13:10:57;92686.00;;;6.10
10598;BMP180;5346;48.766;8.674;2023-03-31T13:13:25;92669.00;;;6.30
10598;BMP180;5346;48.766;8.674;2023-03-31T13:16:01;92700.00;;;6.30
10598;BMP180;5346;48.766;8.674;2023-03-31T13:18:32;92647.00;;;6.10
10598;BMP180;5346;48.766;8.674;2023-03-31T13:21:07;92677.00;;;6.10
10598;BMP180;5346;48.766;8.674;2023-03-31T13:23:36;92691.00;;;6.10
10598;BMP180;5346;48.766;8.674;2023-03-31T13:35:03;92652.00;;;5.70
10598;BMP180;5346;48.766;8.674;2023-03-31T13:38:30;92652.00;;;5.80
10598;BMP180;5346;48.766;8.674;2023-03-31T13:50:57;92567.00;;;7.80
10598;BMP180;5346;48.766;8.674;2023-03-31T14:03:54;92551.00;;;9.90
10598;BMP180;5346;48.766;8.674;2023-03-31T14:06:51;92544.00;;;10.30
10598;BMP180;5346;48.766;8.674;2023-03-31T14:09:39;92586.00;;;10.70
10598;BMP180;5346;48.766;8.674;2023-03-31T14:12:35;92578.00;;;10.80
10598;BMP180;5346;48.766;8.674;2023-03-31T14:15:20;92539.00;;;10.10
10598;BMP180;5346;48.766;8.674;2023-03-31T14:17:54;92543.00;;;10.90
10598;BMP180;5346;48.766;8.674;2023-03-31T14:23:46;92584.00;;;12.00
10598;BMP180;5346;48.766;8.674;2023-03-31T14:29:45;92513.00;;;11.70
10598;BMP180;5346;48.766;8.674;2023-03-31T14:32:36;92545.00;;;11.60
10598;BMP180;5346;48.766;8.674;2023-03-31T14:35:44;92555.00;;;11.70
10598;BMP180;5346;48.766;8.674;2023-03-31T14:38:23;92552.00;;;11.90
10598;BMP180;5346;48.766;8.674;2023-03-31T14:41:00;92515.00;;;11.70
10598;BMP180;5346;48.766;8.674;2023-03-31T14:43:35;92548.00;;;11.70
10598;BMP180;5346;48.766;8.674;2023-03-31T14:46:20;92565.00;;;11.80
10598;BMP180;5346;48.766;8.674;2023-03-31T14:48:50;92506.00;;;11.80
10598;BMP180;5346;48.766;8.674;2023-03-31T14:51:29;92559.00;;;11.80
10598;BMP180;5346;48.766;8.674;2023-03-31T14:54:01;92542.00;;;12.00
10598;BMP180;5346;48.766;8.674;2023-03-31T14:56:39;92567.00;;;12.10
10598;BMP180;5346;48.766;8.674;2023-03-31T14:59:20;92575.00;;;13.00
10598;BMP180;5346;48.766;8.674;2023-03-31T15:01:58;92567.00;;;12.60
10598;BMP180;5346;48.766;8.674;2023-03-31T15:04:30;92578.00;;;12.20
10598;BMP180;5346;48.766;8.674;2023-03-31T15:07:09;92589.00;;;12.00
10598;BMP180;5346;48.766;8.674;2023-03-31T15:09:49;92542.00;;;10.90
10598;BMP180;5346;48.766;8.674;2023-03-31T15:12:21;92577.00;;;11.60
10598;BMP180;5346;48.766;8.674;2023-03-31T15:15:06;92576.00;;;11.30
10598;BMP180;5346;48.766;8.674;2023-03-31T15:17:45;92615.00;;;10.60
10598;BMP180;5346;48.766;8.674;2023-03-31T15:20:31;92606.00;;;10.00
10598;BMP180;5346;48.766;8.674;2023-03-31T15:23:22;92617.00;;;9.90
10598;BMP180;5346;48.766;8.674;2023-03-31T15:26:07;92594.00;;;9.70
10598;BMP180;5346;48.766;8.674;2023-03-31T15:28:56;92624.00;;;9.70
10598;BMP180;5346;48.766;8.674;2023-03-31T15:31:31;92549.00;;;9.50
10598;BMP180;5346;48.766;8.674;2023-03-31T15:34:33;92583.00;;;9.70
10598;BMP180;5346;48.766;8.674;2023-03-31T15:37:08;92576.00;;;9.70
10598;BMP180;5346;48.766;8.674;2023-03-31T15:39:48;92578.00;;;9.60
10598;BMP180;5346;48.766;8.674;2023-03-31T15:42:22;92623.00;;;9.50
10598;BMP180;5346;48.766;8.674;2023-03-31T15:47:52;92646.00;;;8.90
10598;BMP180;5346;48.766;8.674;2023-03-31T15:50:28;92628.00;;;8.70
10598;BMP180;5346;48.766;8.674;2023-03-31T15:53:02;92651.00;;;8.50
10598;BMP180;5346;48.766;8.674;2023-03-31T15:55:41;92610.00;;;8.10
10598;BMP180;5346;48.766;8.674;2023-03-31T15:58:14;92670.00;;;7.80
10598;BMP180;5346;48.766;8.674;2023-03-31T16:00:52;92686.00;;;7.70
10598;BMP180;5346;48.766;8.674;2023-03-31T16:03:34;92658.00;;;7.60
10598;BMP180;5346;48.766;8.674;2023-03-31T16:06:51;92664.00;;;7.60
10598;BMP180;5346;48.766;8.674;2023-03-31T16:09:57;92649.00;;;6.90
10598;BMP180;5346;48.766;8.674;2023-03-31T16:12:57;92685.00;;;6.40
10598;BMP180;5346;48.766;8.674;2023-03-31T16:15:47;92643.00;;;6.40
10598;BMP180;5346;48.766;8.674;2023-03-31T16:18:37;92667.00;;;6.20
10598;BMP180;5346;48.766;8.674;2023-03-31T16:21:11;92595.00;;;6.40
10598;BMP180;5346;48.766;8.674;2023-03-31T16:23:41;92627.00;;;6.40
10598;BMP180;5346;48.766;8.674;2023-03-31T16:26:22;92613.00;;;6.60
10598;BMP180;5346;48.766;8.674;2023-03-31T16:28:52;92629.00;;;6.80
10598;BMP180;5346;48.766;8.674;2023-03-31T16:31:39;92613.00;;;6.80
10598;BMP180;5346;48.766;8.674;2023-03-31T16:34:10;92625.00;;;7.00
10598;BMP180;5346;48.766;8.674;2023-03-31T16:36:44;92611.00;;;7.00
10598;BMP180;5346;48.766;8.674;2023-03-31T16:39:18;92606.00;;;6.90
10598;BMP180;5346;48.766;8.674;2023-03-31T16:41:54;92596.00;;;6.90
10598;BMP180;5346;48.766;8.674;2023-03-31T16:44:21;92611.00;;;7.10
10598;BMP180;5346;48.766;8.674;2023-03-31T16:46:55;92593.00;;;6.90
10598;BMP180;5346;48.766;8.674;2023-03-31T16:49:22;92594.00;;;6.90
10598;BMP180;5346;48.766;8.674;2023-03-31T16:51:57;92583.00;;;6.90
10598;BMP180;5346;48.766;8.674;2023-03-31T16:54:31;92601.00;;;6.80
10598;BMP180;5346;48.766;8.674;2023-03-31T16:56:58;92601.00;;;6.80
10598;BMP180;5346;48.766;8.674;2023-03-31T16:59:38;92551.00;;;6.70
10598;BMP180;5346;48.766;8.674;2023-03-31T17:02:11;92602.00;;;6.60
10598;BMP180;5346;48.766;8.674;2023-03-31T17:04:45;92606.00;;;6.60
10598;BMP180;5346;48.766;8.674;2023-03-31T17:07:25;92606.00;;;6.60
10598;BMP180;5346;48.766;8.674;2023-03-31T17:09:52;92606.00;;;6.60
10598;BMP180;5346;48.766;8.674;2023-03-31T17:12:26;92598.00;;;6.60
10598;BMP180;5346;48.766;8.674;2023-03-31T17:14:53;92618.00;;;6.60
10598;BMP180;5346;48.766;8.674;2023-03-31T17:17:28;92640.00;;;6.60
10598;BMP180;5346;48.766;8.674;2023-03-31T17:19:56;92603.00;;;6.50
10598;BMP180;5346;48.766;8.674;2023-03-31T17:22:32;92612.00;;;6.50
10598;BMP180;5346;48.766;8.674;2023-03-31T17:25:07;92587.00;;;6.40
10598;BMP180;5346;48.766;8.674;2023-03-31T17:27:40;92642.00;;;6.40
10598;BMP180;5346;48.766;8.674;2023-03-31T17:30:15;92653.00;;;6.30
10598;BMP180;5346;48.766;8.674;2023-03-31T17:32:48;92630.00;;;6.20
10598;BMP180;5346;48.766;8.674;2023-03-31T17:35:18;92655.00;;;6.30
10598;BMP180;5346;48.766;8.674;2023-03-31T17:37:54;92662.00;;;6.30
10598;BMP180;5346;48.766;8.674;2023-03-31T17:40:23;92672.00;;;6.40
10598;BMP180;5346;48.766;8.674;2023-03-31T17:43:06;92655.00;;;6.20
10598;BMP180;5346;48.766;8.674;2023-03-31T17:45:39;92676.00;;;6.20
10598;BMP180;5346;48.766;8.674;2023-03-31T17:48:07;92677.00;;;6.00